createdAt,value
2023-05-06T00:01:56.357Z,4.93
2023-05-06T00:09:16.399Z,4.18
2023-05-06T00:16:34.823Z,4.38
2023-05-06T00:23:53.701Z,4.82
2023-05-06T00:31:14.501Z,4.72
2023-05-06T00:38:33.485Z,4.40
2023-05-06T00:45:53.021Z,5.05
2023-05-06T00:53:13.462Z,4.70
2023-05-06T01:00:31.820Z,4.20
2023-05-06T01:07:55.879Z,4.50
2023-05-06T01:15:17.402Z,5.22
2023-05-06T01:22:38.563Z,4.68
2023-05-06T01:29:59.853Z,4.30
2023-05-06T01:37:23.316Z,3.78
2023-05-06T01:44:41.980Z,4.05
2023-05-06T01:52:06.289Z,4.50
2023-05-06T01:59:24.912Z,4.60
2023-05-06T02:06:43.675Z,4.78
2023-05-06T02:14:06.019Z,4.22
2023-05-06T02:21:25.549Z,4.88
2023-05-06T02:28:44.612Z,4.40
2023-05-06T02:36:07.133Z,4.60
2023-05-06T02:43:26.181Z,4.00
2023-05-06T02:50:45.083Z,5.53
2023-05-06T02:58:04.870Z,4.45
2023-05-06T03:05:23.336Z,4.88
2023-05-06T03:12:42.116Z,4.95
2023-05-06T03:20:02.343Z,4.20
2023-05-06T03:27:22.556Z,4.40
2023-05-06T03:34:45.028Z,4.30
2023-05-06T03:42:10.025Z,4.55
2023-05-06T03:49:29.400Z,4.15
2023-05-06T03:56:47.824Z,4.18
2023-05-06T04:04:09.283Z,4.60
2023-05-06T04:11:29.719Z,4.25
2023-05-06T04:18:51.834Z,4.65
2023-05-06T04:26:12.317Z,4.78
2023-05-06T04:33:33.086Z,5.45
2023-05-06T04:40:55.675Z,5.03
2023-05-06T04:48:16.263Z,5.20
2023-05-06T04:55:35.098Z,4.70
2023-05-06T05:02:54.006Z,4.35
2023-05-06T05:10:14.303Z,3.92
2023-05-06T05:17:33.408Z,4.30
2023-05-06T05:24:53.736Z,4.97
2023-05-06T05:32:13.717Z,4.60
2023-05-06T05:39:33.701Z,4.55
2023-05-06T05:46:52.816Z,4.47
2023-05-06T05:54:15.070Z,4.78
2023-05-06T06:01:34.353Z,4.38
2023-05-06T06:08:54.865Z,4.32
2023-05-06T06:16:15.871Z,5.07
2023-05-06T06:23:35.208Z,5.78
2023-05-06T06:30:58.042Z,5.05
2023-05-06T06:38:18.648Z,5.50
2023-05-06T06:45:37.025Z,5.60
2023-05-06T06:52:55.926Z,5.43
2023-05-06T07:00:16.778Z,6.63
2023-05-06T07:07:35.567Z,7.10
2023-05-06T07:14:54.392Z,7.20
2023-05-06T07:22:14.354Z,6.47
2023-05-06T07:29:33.317Z,5.90
2023-05-06T07:36:52.450Z,7.07
2023-05-06T07:44:13.087Z,6.90
2023-05-06T07:51:31.881Z,7.78
2023-05-06T07:58:50.490Z,8.80
2023-05-06T08:06:10.724Z,8.15
2023-05-06T08:13:29.314Z,9.70
2023-05-06T08:20:47.847Z,8.93
2023-05-06T08:28:07.969Z,7.95
2023-05-06T08:35:26.482Z,8.35
2023-05-06T08:42:47.045Z,8.70
2023-05-06T08:50:07.972Z,9.38
2023-05-06T08:57:26.429Z,10.27
2023-05-06T09:04:44.897Z,11.07
2023-05-06T09:12:06.003Z,9.48
2023-05-06T09:19:25.796Z,10.73
2023-05-06T09:26:47.293Z,13.70
2023-05-06T09:34:08.005Z,14.13
2023-05-06T09:41:27.122Z,11.02
2023-05-06T09:48:46.679Z,10.35
2023-05-06T09:56:07.713Z,8.10
2023-05-06T10:03:26.823Z,8.82
2023-05-06T10:10:47.230Z,9.88
2023-05-06T10:18:07.787Z,9.82
2023-05-06T10:25:32.198Z,9.52
2023-05-06T10:32:52.006Z,9.20
2023-05-06T10:40:13.350Z,10.23
2023-05-06T10:48:08.806Z,9.27
2023-05-06T10:55:30.428Z,10.23
2023-05-06T11:02:56.458Z,9.27
2023-05-06T11:10:15.353Z,9.90
2023-05-06T11:17:35.610Z,9.15
2023-05-06T11:24:53.944Z,9.43
2023-05-06T11:32:23.825Z,9.07
2023-05-06T11:39:50.003Z,9.35
2023-05-06T11:47:09.753Z,9.18
2023-05-06T11:54:28.621Z,9.52
2023-05-06T12:01:49.193Z,9.32
2023-05-06T12:09:09.070Z,8.30
2023-05-06T12:16:27.995Z,8.18
2023-05-06T12:23:54.058Z,7.90
2023-05-06T12:31:23.379Z,7.65
2023-05-06T12:38:52.356Z,9.07
2023-05-06T12:46:13.730Z,8.43
2023-05-06T12:53:34.404Z,8.80
2023-05-06T13:01:16.118Z,8.07
2023-05-06T13:08:35.495Z,8.15
2023-05-06T13:15:54.907Z,8.95
2023-05-06T13:23:15.863Z,7.80
2023-05-06T13:30:37.476Z,8.95
2023-05-06T13:37:56.148Z,9.02
2023-05-06T13:45:16.474Z,11.25
2023-05-06T13:52:35.215Z,12.45
2023-05-06T13:59:53.871Z,12.23
2023-05-06T14:07:14.169Z,15.52
2023-05-06T14:14:32.791Z,14.55
2023-05-06T14:21:52.577Z,13.13
2023-05-06T14:29:12.776Z,11.63
2023-05-06T14:36:31.811Z,12.73
2023-05-06T14:43:51.853Z,12.75
2023-05-06T14:51:12.327Z,11.65
2023-05-06T14:58:30.849Z,11.93
2023-05-06T15:05:50.865Z,13.98
2023-05-06T15:13:11.336Z,12.45
2023-05-06T15:20:30.115Z,10.82
2023-05-06T15:27:48.860Z,10.63
2023-05-06T15:35:10.238Z,13.38
2023-05-06T15:42:29.054Z,13.07
2023-05-06T15:49:54.457Z,14.98
2023-05-06T15:57:16.164Z,11.48
2023-05-06T16:04:35.033Z,9.93
2023-05-06T16:11:55.615Z,9.82
2023-05-06T16:19:39.055Z,11.02
2023-05-06T16:26:59.037Z,10.90
2023-05-06T16:34:19.986Z,8.32
2023-05-06T16:49:04.872Z,8.75
2023-05-06T16:56:44.155Z,8.85
2023-05-06T17:04:05.907Z,8.10
2023-05-06T17:11:26.282Z,7.47
2023-05-06T17:18:45.299Z,5.88
2023-05-06T17:26:09.631Z,6.47
2023-05-06T17:33:30.772Z,6.65
2023-05-06T17:40:49.867Z,5.20
2023-05-06T17:48:08.717Z,5.22
2023-05-06T17:55:30.923Z,5.57
2023-05-06T18:02:49.935Z,6.53
2023-05-06T18:10:10.039Z,6.40
2023-05-06T18:17:30.584Z,6.30
2023-05-06T18:24:54.742Z,5.97
2023-05-06T18:32:15.400Z,6.40
2023-05-06T18:39:41.310Z,7.13
2023-05-06T18:46:59.859Z,7.38
2023-05-06T18:54:18.541Z,8.02
2023-05-06T19:01:38.542Z,7.22
2023-05-06T19:08:57.814Z,6.45
2023-05-06T19:16:16.315Z,5.80
2023-05-06T19:23:36.912Z,11.20
2023-05-06T19:30:56.755Z,6.55
2023-05-06T19:38:15.296Z,6.85
2023-05-06T19:45:35.576Z,6.68
2023-05-06T19:52:54.073Z,7.38
2023-05-06T20:00:14.330Z,7.20
2023-05-06T20:07:48.257Z,6.93
2023-05-06T20:15:10.424Z,13.27
2023-05-06T20:22:53.529Z,6.70
2023-05-06T20:30:16.117Z,6.27
2023-05-06T20:37:36.670Z,6.53
2023-05-06T20:45:10.441Z,6.72
2023-05-06T20:59:50.090Z,5.65
2023-05-06T21:07:12.200Z,6.88
2023-05-06T21:14:33.204Z,6.25
2023-05-06T21:21:52.359Z,6.55
2023-05-06T21:29:13.046Z,6.82
2023-05-06T21:36:32.118Z,7.45
2023-05-06T21:43:50.685Z,7.22
2023-05-06T21:51:10.946Z,6.75
2023-05-06T21:58:29.483Z,6.40
2023-05-06T22:05:48.628Z,6.10
2023-05-06T22:13:09.218Z,6.10
2023-05-06T22:20:29.913Z,6.18
2023-05-06T22:27:57.951Z,6.22
2023-05-06T22:35:20.922Z,5.15
2023-05-06T22:42:40.165Z,5.03
2023-05-06T22:49:58.812Z,5.57
2023-05-06T22:57:19.486Z,5.25
2023-05-06T23:04:38.862Z,5.30
2023-05-06T23:11:57.359Z,4.50
2023-05-06T23:19:17.266Z,4.60
2023-05-06T23:26:36.136Z,4.30
2023-05-06T23:33:55.024Z,4.63
2023-05-06T23:41:15.231Z,4.40
2023-05-06T23:48:33.600Z,4.65
2023-05-06T23:55:51.794Z,4.75
